Time;durP1;ratioP1;P1;durP2;ratioP2;P2;SDS_P1;SDS_P2;PMS_P1;PMS_P2;Temp;Humidity;BMP_temperature;BMP_pressure;BME280_temperature;BME280_humidity;BME280_pressure;Samples;Min_cycle;Max_cycle;Signal;HPM_P1;HPM_P2
2023/08/07 00:04:22;;;;;;;11.13;2.60;;;;;;;11.24;100.00;101130.75;10440383;28;20110;-75
2023/08/07 00:09:22;;;;;;;10.10;3.60;;;;;;;11.22;100.00;101131.47;10436274;28;20037;-76
2023/08/07 00:14:23;;;;;;;9.30;3.10;;;;;;;11.23;100.00;101131.56;10422327;28;20538;-76
2023/08/07 00:19:23;;;;;;;16.08;4.32;;;;;;;11.22;100.00;101123.63;10437274;28;20064;-75
2023/08/07 00:24:24;;;;;;;10.73;4.28;;;;;;;11.23;100.00;101118.47;10438467;28;20044;-76
2023/08/07 00:29:24;;;;;;;13.77;5.35;;;;;;;11.21;100.00;101120.13;10449285;28;20476;-75
2023/08/07 00:34:25;;;;;;;13.57;5.10;;;;;;;11.23;100.00;101118.47;10435006;28;20032;-75
2023/08/07 00:39:25;;;;;;;18.70;4.60;;;;;;;11.25;100.00;101119.44;10447388;28;20137;-75
2023/08/07 00:44:26;;;;;;;11.88;4.65;;;;;;;11.26;100.00;101123.88;10407735;28;20033;-76
2023/08/07 00:49:27;;;;;;;9.85;4.50;;;;;;;11.27;100.00;101124.75;10446280;28;20131;-76
2023/08/07 00:54:27;;;;;;;13.18;4.00;;;;;;;11.30;100.00;101117.03;10446359;28;20112;-75
2023/08/07 00:59:28;;;;;;;19.73;5.95;;;;;;;11.34;100.00;101118.09;10428880;28;20037;-76
2023/08/07 01:04:28;;;;;;;9.90;4.55;;;;;;;11.37;100.00;101121.75;10445864;28;20143;-75
2023/08/07 01:09:29;;;;;;;14.63;4.10;;;;;;;11.42;100.00;101125.50;10432608;28;20089;-75
2023/08/07 01:14:55;;;;;;;15.43;4.90;;;;;;;11.47;100.00;101133.59;10435941;28;20045;-75
2023/08/07 01:19:56;;;;;;;19.33;4.22;;;;;;;11.49;100.00;101142.44;10453388;28;20472;-78
2023/08/07 01:24:57;;;;;;;10.00;3.67;;;;;;;11.48;100.00;101139.72;10519749;28;20074;-76
2023/08/07 01:30:09;;;;;;;13.68;3.65;;;;;;;11.45;100.00;101146.63;10470957;28;20400;-76
2023/08/07 01:35:11;;;;;;;18.73;6.45;;;;;;;11.45;100.00;101143.09;10466095;28;20048;-77
2023/08/07 01:40:12;;;;;;;12.25;4.15;;;;;;;11.45;100.00;101151.84;10485535;28;20086;-76
2023/08/07 01:45:13;;;;;;;9.27;3.58;;;;;;;11.44;100.00;101152.69;10526430;27;20105;-76
2023/08/07 01:50:13;;;;;;;9.05;3.58;;;;;;;11.38;100.00;101139.28;10468777;28;20048;-77
2023/08/07 01:55:18;;;;;;;17.63;4.00;;;;;;;11.24;100.00;101146.47;10483778;28;20062;-76
2023/08/07 02:00:18;;;;;;;16.38;4.25;;;;;;;11.16;100.00;101156.56;10425001;28;20042;-76
2023/08/07 02:05:19;;;;;;;10.88;4.13;;;;;;;11.16;100.00;101158.28;10472334;28;20052;-76
2023/08/07 02:10:19;;;;;;;8.95;3.08;;;;;;;11.18;100.00;101171.44;10441081;28;20052;-76
2023/08/07 02:15:20;;;;;;;6.05;2.53;;;;;;;11.16;100.00;101184.50;10437169;28;20090;-76
2023/08/07 02:20:21;;;;;;;10.02;3.45;;;;;;;11.12;100.00;101177.31;10443213;28;20041;-76
2023/08/07 02:25:21;;;;;;;22.80;4.13;;;;;;;11.07;100.00;101178.78;10425956;28;20062;-75
2023/08/07 02:30:22;;;;;;;12.05;3.55;;;;;;;10.99;100.00;101181.00;10444496;28;20044;-77
2023/08/07 02:35:22;;;;;;;14.95;3.72;;;;;;;10.95;100.00;101182.59;10443196;28;20041;-77
2023/08/07 02:40:23;;;;;;;11.35;3.50;;;;;;;10.92;100.00;101199.84;10444769;28;20485;-77
2023/08/07 02:45:23;;;;;;;11.50;4.82;;;;;;;10.84;100.00;101204.69;10472952;28;20146;-77
2023/08/07 02:50:26;;;;;;;14.25;5.25;;;;;;;10.74;100.00;101208.53;10418497;28;20048;-78
2023/08/07 02:55:26;;;;;;;11.98;3.70;;;;;;;10.65;100.00;101210.66;10437641;28;20160;-77
2023/08/07 03:00:27;;;;;;;8.75;5.47;;;;;;;10.60;100.00;101207.81;10437280;28;20120;-76
2023/08/07 03:05:28;;;;;;;12.90;5.30;;;;;;;10.58;100.00;101219.94;10423832;28;20039;-76
2023/08/07 03:10:28;;;;;;;16.67;4.90;;;;;;;10.61;100.00;101227.03;10424495;28;20071;-76
2023/08/07 03:15:29;;;;;;;18.10;5.15;;;;;;;10.64;100.00;101220.25;10440174;28;20037;-77
2023/08/07 03:20:29;;;;;;;13.32;5.20;;;;;;;10.68;100.00;101210.84;10443517;28;20045;-76
2023/08/07 03:25:30;;;;;;;13.50;5.22;;;;;;;10.66;100.00;101197.69;10424930;28;20040;-77
2023/08/07 03:30:30;;;;;;;15.02;5.35;;;;;;;10.68;100.00;101196.03;10486678;28;20393;-76
2023/08/07 03:35:31;;;;;;;15.55;4.57;;;;;;;10.67;100.00;101202.09;10477168;28;20033;-77
2023/08/07 03:40:31;;;;;;;10.00;4.53;;;;;;;10.68;100.00;101197.75;10479964;28;20048;-76
2023/08/07 03:45:32;;;;;;;10.95;4.32;;;;;;;10.74;100.00;101199.81;10477690;28;20115;-77
2023/08/07 03:50:34;;;;;;;12.95;4.43;;;;;;;10.83;100.00;101202.91;10481940;28;20058;-77
2023/08/07 03:55:35;;;;;;;20.02;7.85;;;;;;;10.90;100.00;101201.47;10478326;28;20068;-77
2023/08/07 04:00:36;;;;;;;17.75;4.80;;;;;;;10.97;100.00;101204.50;10477909;28;20028;-76
2023/08/07 04:05:36;;;;;;;15.70;5.00;;;;;;;11.02;100.00;101196.88;10462251;28;20097;-77
2023/08/07 04:10:37;;;;;;;12.77;4.13;;;;;;;10.99;100.00;101173.16;10476495;28;20534;-77
2023/08/07 04:15:37;;;;;;;8.57;3.15;;;;;;;11.07;100.00;101174.44;10508198;28;20115;-77
2023/08/07 04:20:38;;;;;;;11.27;3.58;;;;;;;11.10;100.00;101171.09;10470225;28;20037;-77
2023/08/07 04:25:38;;;;;;;16.13;4.17;;;;;;;11.17;100.00;101170.56;10375513;28;1275957;-78
2023/08/07 04:30:43;;;;;;;12.15;4.85;;;;;;;11.22;100.00;101178.66;10434395;28;20659;-79
2023/08/07 04:35:43;;;;;;;14.27;3.10;;;;;;;11.29;100.00;101171.19;10432791;28;20078;-77
2023/08/07 04:40:45;;;;;;;13.07;4.50;;;;;;;11.30;100.00;101161.59;10432877;28;20063;-77
2023/08/07 04:45:46;;;;;;;13.15;5.10;;;;;;;11.36;100.00;101168.88;10442310;28;20055;-78
2023/08/07 04:50:47;;;;;;;14.60;4.82;;;;;;;11.41;100.00;101178.72;10419995;28;20076;-76
2023/08/07 04:55:47;;;;;;;9.32;4.03;;;;;;;11.49;100.00;101163.41;10439466;28;20034;-77
2023/08/07 05:00:48;;;;;;;12.70;4.32;;;;;;;11.52;100.00;101176.66;10440132;28;20039;-77
2023/08/07 05:05:48;;;;;;;7.47;4.15;;;;;;;11.62;100.00;101166.63;10436282;28;20041;-76
2023/08/07 05:10:49;;;;;;;12.10;4.95;;;;;;;11.62;100.00;101175.38;10438782;28;20205;-76
2023/08/07 05:15:49;;;;;;;9.38;3.85;;;;;;;11.65;100.00;101190.34;10452408;28;20430;-76
2023/08/07 05:20:50;;;;;;;22.40;5.28;;;;;;;11.67;100.00;101189.59;10459918;28;20098;-77
2023/08/07 05:25:50;;;;;;;10.07;3.63;;;;;;;11.71;100.00;101196.78;10476543;28;20452;-76
2023/08/07 05:30:51;;;;;;;7.55;4.07;;;;;;;11.69;100.00;101205.41;10440421;28;20045;-76
2023/08/07 05:35:52;;;;;;;7.85;3.72;;;;;;;11.71;100.00;101203.75;10412469;28;20126;-76
2023/08/07 05:40:53;;;;;;;12.80;4.03;;;;;;;11.74;100.00;101207.41;10438719;28;20041;-76
2023/08/07 05:45:53;;;;;;;13.02;3.83;;;;;;;11.73;100.00;101213.50;10478314;28;20577;-77
2023/08/07 05:50:54;;;;;;;9.68;4.07;;;;;;;11.73;100.00;101216.09;10430584;28;20120;-76
2023/08/07 05:55:55;;;;;;;12.38;5.22;;;;;;;11.75;100.00;101230.19;10434599;28;20053;-76
2023/08/07 06:00:55;;;;;;;12.40;4.65;;;;;;;11.81;100.00;101221.75;10421371;28;20132;-76
2023/08/07 06:05:56;;;;;;;9.88;3.38;;;;;;;11.87;100.00;101234.22;10445964;28;20037;-76
2023/08/07 06:10:56;;;;;;;11.90;3.97;;;;;;;11.79;100.00;101246.06;10444114;28;20049;-77
2023/08/07 06:15:57;;;;;;;8.77;3.60;;;;;;;11.73;100.00;101241.44;10483626;28;20047;-76
2023/08/07 06:20:57;;;;;;;13.38;3.67;;;;;;;11.72;100.00;101260.63;10484030;28;20382;-77
2023/08/07 06:25:58;;;;;;;18.67;4.13;;;;;;;11.64;100.00;101262.84;10477754;28;20058;-76
2023/08/07 06:31:06;;;;;;;7.18;2.88;;;;;;;11.58;100.00;101271.31;10478294;28;20047;-76
2023/08/07 06:36:08;;;;;;;15.18;4.30;;;;;;;11.61;100.00;101273.19;10433680;28;20036;-77
2023/08/07 06:41:09;;;;;;;13.60;4.18;;;;;;;11.77;100.00;101273.94;10460478;28;20056;-77
2023/08/07 06:46:11;;;;;;;11.90;4.72;;;;;;;11.90;100.00;101266.78;10420008;28;20106;-76
2023/08/07 06:51:11;;;;;;;;;;;;;;;12.03;100.00;101262.16;10456830;28;20407;-76
2023/08/07 06:56:12;;;;;;;15.93;6.30;;;;;;;12.18;100.00;101262.88;10485086;27;19932;-77
2023/08/07 07:01:12;;;;;;;10.65;3.67;;;;;;;12.41;100.00;101268.31;10477815;28;20089;-77
2023/08/07 07:06:13;;;;;;;16.13;4.55;;;;;;;12.67;100.00;101259.81;10431439;28;20548;-77
2023/08/07 07:11:14;;;;;;;8.15;3.00;;;;;;;12.86;100.00;101272.94;10430426;28;20037;-77
2023/08/07 07:16:15;;;;;;;39.90;4.40;;;;;;;12.96;100.00;101270.72;10417300;28;20036;-77
2023/08/07 07:21:15;;;;;;;10.18;3.08;;;;;;;13.05;100.00;101261.53;10402639;28;20483;-77
2023/08/07 07:26:16;;;;;;;10.40;2.83;;;;;;;13.09;100.00;101274.81;10413709;28;20040;-76
2023/08/07 07:31:16;;;;;;;12.27;2.75;;;;;;;13.14;100.00;101282.06;10441436;28;20040;-76
2023/08/07 07:36:18;;;;;;;7.95;3.05;;;;;;;13.29;100.00;101286.19;10435930;28;20041;-77
2023/08/07 07:41:19;;;;;;;6.20;3.42;;;;;;;13.64;100.00;101299.97;10448507;28;20040;-78
2023/08/07 07:46:19;;;;;;;25.52;4.72;;;;;;;13.85;100.00;101309.59;10482810;28;20032;-76
2023/08/07 07:51:20;;;;;;;6.97;2.63;;;;;;;14.26;100.00;101310.38;10476794;28;20616;-76
2023/08/07 07:56:20;;;;;;;10.38;2.97;;;;;;;14.65;100.00;101317.13;10424440;28;20116;-78
2023/08/07 08:01:21;;;;;;;9.40;2.58;;;;;;;15.07;100.00;101316.97;10431850;28;20041;-79
2023/08/07 08:06:22;;;;;;;15.38;3.17;;;;;;;14.88;100.00;101330.31;10434753;28;20049;-79
2023/08/07 08:11:23;;;;;;;6.15;2.20;;;;;;;14.70;100.00;101330.50;10414358;28;20041;-78
2023/08/07 08:16:23;;;;;;;7.25;2.75;;;;;;;14.94;100.00;101341.09;10431297;28;20044;-80
2023/08/07 08:21:24;;;;;;;10.88;2.85;;;;;;;14.99;100.00;101365.88;10439013;28;20044;-80
2023/08/07 08:26:25;;;;;;;9.88;2.67;;;;;;;14.38;100.00;101383.69;10439351;28;20091;-78
2023/08/07 08:31:25;;;;;;;32.38;3.20;;;;;;;14.27;100.00;101393.78;10436229;28;20087;-78
2023/08/07 08:36:26;;;;;;;7.55;2.88;;;;;;;14.77;100.00;101380.88;10439026;28;20563;-79
2023/08/07 08:41:26;;;;;;;6.18;2.17;;;;;;;15.22;100.00;101366.72;10436150;28;20119;-79
2023/08/07 08:46:28;;;;;;;11.15;3.00;;;;;;;16.29;100.00;101362.47;10421302;28;20055;-79
2023/08/07 08:51:28;;;;;;;7.60;2.77;;;;;;;16.79;100.00;101364.00;10421600;28;20494;-79
2023/08/07 08:56:30;;;;;;;6.57;2.38;;;;;;;17.22;100.00;101372.31;10457043;28;20033;-79
2023/08/07 09:01:31;;;;;;;10.07;3.78;;;;;;;17.88;100.00;101364.34;10446783;28;20435;-79
2023/08/07 09:06:31;;;;;;;5.38;2.00;;;;;;;18.74;100.00;101369.94;10436878;28;20045;-79
2023/08/07 09:11:33;;;;;;;4.20;2.25;;;;;;;20.59;100.00;101365.31;10437400;28;20142;-80
2023/08/07 09:16:33;;;;;;;7.03;2.83;;;;;;;22.55;100.00;101373.59;10447084;28;20049;-77
2023/08/07 09:21:34;;;;;;;5.90;2.50;;;;;;;23.49;100.00;101380.22;10422274;28;20040;-78
2023/08/07 09:26:35;;;;;;;8.23;2.27;;;;;;;23.91;100.00;101375.81;10438151;28;20056;-78
2023/08/07 09:31:37;;;;;;;6.03;1.77;;;;;;;23.24;90.42;101394.41;10422097;28;20056;-78
2023/08/07 09:36:38;;;;;;;3.88;1.52;;;;;;;21.62;100.00;101394.97;10441765;28;20040;-78
2023/08/07 09:41:38;;;;;;;6.37;1.77;;;;;;;21.32;100.00;101391.13;10442616;28;20127;-79
2023/08/07 09:46:44;;;;;;;7.32;2.40;;;;;;;18.13;100.00;101412.69;10440334;28;20049;-79
2023/08/07 09:51:46;;;;;;;4.47;2.38;;;;;;;17.31;100.00;101408.72;10414594;28;20116;-77
2023/08/07 09:56:47;;;;;;;3.85;1.73;;;;;;;16.92;100.00;101410.19;10406225;28;20060;-79
2023/08/07 10:01:48;;;;;;;9.13;2.17;;;;;;;17.50;100.00;101418.06;10427601;28;20037;-76
2023/08/07 10:06:48;;;;;;;7.18;2.20;;;;;;;18.25;100.00;101414.72;10441607;28;20507;-79
2023/08/07 10:11:49;;;;;;;5.25;2.30;;;;;;;18.59;100.00;101423.50;10433509;28;20037;-78
2023/08/07 10:16:51;;;;;;;5.80;2.08;;;;;;;21.74;100.00;101420.91;10467822;28;20041;-76
2023/08/07 10:21:51;;;;;;;4.80;1.80;;;;;;;22.48;100.00;101422.44;10481800;28;20175;-77
2023/08/07 10:26:52;;;;;;;11.40;2.43;;;;;;;20.64;100.00;101427.44;10466607;28;20036;-77
2023/08/07 10:31:52;;;;;;;5.90;1.63;;;;;;;22.66;100.00;101430.56;10459436;28;20093;-78
2023/08/07 10:36:53;;;;;;;2.60;1.53;;;;;;;23.43;90.25;101431.88;10463891;28;20120;-79
2023/08/07 10:41:54;;;;;;;4.33;2.10;;;;;;;24.25;81.68;101423.97;10475247;28;20432;-79
2023/08/07 10:46:56;;;;;;;6.57;1.70;;;;;;;21.05;95.06;101431.59;10476569;28;20064;-78
2023/08/07 10:51:56;;;;;;;11.53;5.50;;;;;;;19.61;100.00;101446.03;10475077;28;20094;-78
2023/08/07 10:56:57;;;;;;;6.10;1.97;;;;;;;19.48;100.00;101440.50;10466681;28;20169;-78
2023/08/07 11:01:57;;;;;;;2.88;1.58;;;;;;;20.43;100.00;101430.69;10455607;28;20617;-77
2023/08/07 11:06:58;;;;;;;7.77;2.87;;;;;;;23.44;97.60;101433.66;10465147;28;20036;-79
2023/08/07 11:11:58;;;;;;;5.93;2.37;;;;;;;24.73;82.66;101440.03;10483228;28;20423;-79
2023/08/07 11:16:59;;;;;;;9.40;3.73;;;;;;;22.88;88.58;101450.25;10514419;28;20039;-79
2023/08/07 11:21:59;;;;;;;6.17;2.93;;;;;;;20.73;97.70;101462.16;10482490;28;20032;-77
2023/08/07 11:27:00;;;;;;;7.60;2.13;;;;;;;19.24;100.00;101462.09;10466012;28;20082;-78
2023/08/07 11:32:01;;;;;;;9.35;2.10;;;;;;;18.36;100.00;101458.28;10484112;28;20044;-78
2023/08/07 11:37:01;;;;;;;4.35;1.88;;;;;;;19.68;100.00;101458.56;10463620;28;20116;-78
2023/08/07 11:42:02;;;;;;;7.20;2.63;;;;;;;22.44;93.02;101446.44;10505231;28;20040;-77
2023/08/07 11:47:03;;;;;;;4.40;2.07;;;;;;;24.73;93.83;101442.69;10484118;28;20048;-78
2023/08/07 11:52:03;;;;;;;3.57;1.87;;;;;;;24.78;70.52;101446.25;10481595;28;20036;-78
2023/08/07 11:57:15;;;;;;;7.47;1.60;;;;;;;25.79;76.38;101445.81;10465350;28;20627;-78
2023/08/07 12:02:16;;;;;;;5.78;1.83;;;;;;;26.18;76.53;101442.00;10479076;28;20075;-79
2023/08/07 12:07:23;;;;;;;6.50;2.50;;;;;;;27.60;65.22;101435.97;10481330;28;20049;-78
2023/08/07 12:12:23;;;;;;;3.65;1.88;;;;;;;25.31;59.21;101447.84;10479786;28;20040;-79
2023/08/07 12:17:24;;;;;;;2.83;1.43;;;;;;;24.45;68.44;101445.38;10483557;28;20132;-78
2023/08/07 12:22:27;;;;;;;8.93;3.37;;;;;;;25.87;71.36;101437.75;10497011;28;20042;-79
2023/08/07 12:27:28;;;;;;;8.98;3.08;;;;;;;26.22;67.75;101449.09;10481107;28;20040;-79
2023/08/07 12:32:28;;;;;;;4.70;1.93;;;;;;;25.35;73.09;101445.16;10481336;28;20036;-78
2023/08/07 12:37:29;;;;;;;5.23;2.93;;;;;;;25.39;77.99;101437.09;10488816;28;20055;-78
2023/08/07 12:42:30;;;;;;;6.20;3.03;;;;;;;25.99;76.55;101435.88;10521037;28;20124;-79
2023/08/07 12:47:31;;;;;;;6.55;2.05;;;;;;;25.89;66.61;101435.94;10523253;28;20032;-78
2023/08/07 12:52:31;;;;;;;5.03;2.67;;;;;;;22.00;94.01;101462.91;10488011;28;20488;-80
2023/08/07 12:57:32;;;;;;;5.43;2.53;;;;;;;19.07;100.00;101465.28;10491291;28;20119;-79
2023/08/07 13:02:32;;;;;;;7.70;2.38;;;;;;;17.61;100.00;101477.47;10486036;28;20121;-78
2023/08/07 13:07:33;;;;;;;4.57;2.25;;;;;;;17.78;100.00;101465.56;10452154;28;20040;-78
2023/08/07 13:12:35;;;;;;;9.20;3.08;;;;;;;19.43;100.00;101470.44;10450216;28;20052;-79
2023/08/07 13:17:36;;;;;;;5.05;2.55;;;;;;;21.81;100.00;101467.13;10488165;28;20043;-78
2023/08/07 13:22:37;;;;;;;14.35;3.38;;;;;;;21.26;100.00;101465.56;10487785;28;20441;-78
2023/08/07 13:27:37;;;;;;;6.40;2.53;;;;;;;19.89;100.00;101468.72;10486381;28;20046;-78
2023/08/07 13:32:38;;;;;;;5.60;2.38;;;;;;;18.51;100.00;101478.97;10486417;28;20381;-77
2023/08/07 13:37:38;;;;;;;9.50;3.72;;;;;;;18.91;100.00;101468.41;10486340;28;20040;-78
2023/08/07 13:42:39;;;;;;;4.97;2.72;;;;;;;18.84;100.00;101470.03;10502889;28;20467;-77
2023/08/07 13:47:40;;;;;;;4.85;2.40;;;;;;;19.19;100.00;101463.75;10486049;28;20040;-78
2023/08/07 13:52:41;;;;;;;3.83;1.70;;;;;;;19.31;100.00;101466.66;10487884;28;20116;-77
2023/08/07 13:57:41;;;;;;;7.32;2.40;;;;;;;19.43;100.00;101470.44;10511697;28;20036;-78
2023/08/07 14:02:42;;;;;;;8.20;2.50;;;;;;;19.49;100.00;101471.47;10513721;28;20040;-79
2023/08/07 14:07:42;;;;;;;4.28;1.73;;;;;;;18.72;100.00;101483.88;10487428;28;20143;-79
2023/08/07 14:12:43;;;;;;;7.38;2.60;;;;;;;17.15;100.00;101471.75;10517236;28;20040;-80
2023/08/07 14:17:43;;;;;;;5.40;2.25;;;;;;;16.73;100.00;101482.75;10483489;28;20112;-77
2023/08/07 14:22:44;;;;;;;4.25;2.15;;;;;;;18.19;100.00;101461.41;10519174;28;20121;-77
2023/08/07 14:27:45;;;;;;;6.35;3.20;;;;;;;17.81;100.00;101477.13;10513710;28;20043;-76
2023/08/07 14:32:46;;;;;;;8.70;2.40;;;;;;;19.03;100.00;101459.88;10481524;28;20094;-77
2023/08/07 14:37:48;;;;;;;5.75;3.38;;;;;;;19.13;100.00;101466.28;10457884;28;20093;-77
2023/08/07 14:42:48;;;;;;;7.70;3.08;;;;;;;21.06;100.00;101468.88;10482306;28;20041;-77
2023/08/07 14:47:49;;;;;;;8.27;2.38;;;;;;;21.71;100.00;101469.69;10485138;28;20580;-77
2023/08/07 14:52:50;;;;;;;4.95;2.65;;;;;;;21.04;100.00;101483.03;10459464;28;20048;-78
2023/08/07 14:57:50;;;;;;;6.27;2.23;;;;;;;21.13;100.00;101473.41;10469356;28;20065;-78
2023/08/07 15:02:51;;;;;;;3.60;1.67;;;;;;;20.87;100.00;101491.66;10474876;28;20403;-77
2023/08/07 15:07:51;;;;;;;2.33;1.20;;;;;;;20.35;100.00;101502.31;10473067;28;20052;-79
2023/08/07 15:12:52;;;;;;;2.73;1.17;;;;;;;19.89;100.00;101503.25;10482942;28;20085;-78
2023/08/07 15:17:52;;;;;;;2.63;1.33;;;;;;;19.70;100.00;101501.06;10460101;28;20032;-78
2023/08/07 15:22:53;;;;;;;3.00;1.10;;;;;;;19.81;100.00;101488.91;10465399;28;20508;-78
2023/08/07 15:27:54;;;;;;;4.78;1.25;;;;;;;18.57;100.00;101499.44;10484196;28;20036;-78
2023/08/07 15:32:55;;;;;;;4.93;1.50;;;;;;;18.11;100.00;101500.03;10478020;28;20161;-78
2023/08/07 15:37:56;;;;;;;4.22;1.30;;;;;;;17.78;100.00;101492.06;10481982;28;20037;-77
2023/08/07 15:42:57;;;;;;;5.18;1.77;;;;;;;17.53;100.00;101492.22;10464910;28;20041;-78
2023/08/07 15:47:57;;;;;;;1.88;1.13;;;;;;;17.39;100.00;101490.94;10496312;28;20135;-77
2023/08/07 15:52:58;;;;;;;2.42;0.95;;;;;;;17.71;100.00;101491.88;10483501;28;20124;-77
2023/08/07 15:57:58;;;;;;;4.47;1.40;;;;;;;18.27;100.00;101500.44;10481453;28;20059;-79
2023/08/07 16:03:04;;;;;;;2.08;1.10;;;;;;;18.02;100.00;101495.41;10481085;28;20036;-79
2023/08/07 16:08:05;;;;;;;3.80;1.38;;;;;;;17.57;100.00;101490.59;10475639;28;20979;-77
2023/08/07 16:13:06;;;;;;;4.05;1.52;;;;;;;17.19;100.00;101487.72;10479629;28;20056;-77
2023/08/07 16:18:07;;;;;;;5.45;1.45;;;;;;;17.17;100.00;101491.19;10463936;28;20032;-78
2023/08/07 16:23:07;;;;;;;1.98;1.15;;;;;;;17.31;100.00;101486.31;10479830;28;20048;-78
2023/08/07 16:28:08;;;;;;;2.53;1.45;;;;;;;17.57;100.00;101485.28;10515029;28;20109;-77
2023/08/07 16:33:08;;;;;;;1.42;1.05;;;;;;;17.17;100.00;101475.34;10479119;28;20090;-77
2023/08/07 16:38:09;;;;;;;7.40;1.55;;;;;;;16.83;100.00;101473.34;10462852;28;20039;-78
2023/08/07 16:43:09;;;;;;;3.13;1.30;;;;;;;16.74;100.00;101477.50;10476758;28;20045;-78
2023/08/07 16:48:10;;;;;;;3.92;1.48;;;;;;;16.70;100.00;101480.88;10481864;28;20076;-78
2023/08/07 16:53:11;;;;;;;2.08;1.17;;;;;;;16.91;100.00;101485.06;10476778;28;20439;-78
2023/08/07 16:58:12;;;;;;;1.83;1.20;;;;;;;17.02;100.00;101480.16;10480068;28;20052;-78
2023/08/07 17:03:14;;;;;;;4.13;1.88;;;;;;;16.88;100.00;101477.94;10482650;28;20492;-78
2023/08/07 17:08:14;;;;;;;;;;;;;;;16.67;100.00;101479.91;10480421;28;20127;-77
2023/08/07 17:13:15;;;;;;;3.55;1.30;;;;;;;16.63;100.00;101470.97;10478930;28;19921;-78
2023/08/07 17:18:15;;;;;;;2.40;0.77;;;;;;;16.53;100.00;101461.84;10481276;28;20048;-77
2023/08/07 17:23:16;;;;;;;3.78;0.90;;;;;;;16.34;100.00;101462.09;10478072;28;20056;-77
2023/08/07 17:28:16;;;;;;;2.55;1.20;;;;;;;16.44;100.00;101467.72;10482119;28;20041;-78
2023/08/07 17:33:17;;;;;;;2.08;1.08;;;;;;;16.73;100.00;101458.97;10475949;28;20066;-77
2023/08/07 17:38:20;;;;;;;2.33;0.98;;;;;;;16.80;100.00;101457.38;10484926;28;20121;-77
2023/08/07 17:43:21;;;;;;;4.25;1.60;;;;;;;16.42;100.00;101461.47;10485636;28;20048;-78
2023/08/07 17:48:21;;;;;;;4.07;0.85;;;;;;;15.99;100.00;101454.75;10484350;28;20543;-78
2023/08/07 17:53:22;;;;;;;1.77;1.13;;;;;;;15.67;100.00;101457.09;10486602;28;20028;-78
2023/08/07 17:58:22;;;;;;;3.42;1.10;;;;;;;15.47;100.00;101469.59;10486171;28;20057;-77
2023/08/07 18:03:23;;;;;;;2.88;1.23;;;;;;;15.32;100.00;101470.81;10486020;28;20045;-77
2023/08/07 18:08:23;;;;;;;4.10;1.42;;;;;;;15.12;100.00;101470.03;10486896;28;20484;-77
2023/08/07 18:13:24;;;;;;;2.72;1.42;;;;;;;14.94;100.00;101465.84;10486195;28;20047;-77
2023/08/07 18:18:25;;;;;;;6.07;1.60;;;;;;;14.88;100.00;101468.22;10483046;28;20129;-77
2023/08/07 18:23:25;;;;;;;1.55;1.08;;;;;;;14.73;100.00;101473.81;10483012;28;20068;-77
2023/08/07 18:28:26;;;;;;;3.58;1.30;;;;;;;14.61;100.00;101460.97;10482738;28;20043;-78
2023/08/07 18:33:26;;;;;;;4.40;2.17;;;;;;;14.48;100.00;101469.22;10483765;28;20028;-77
2023/08/07 18:38:27;;;;;;;2.58;1.63;;;;;;;14.30;100.00;101465.00;10483961;28;20101;-77
2023/08/07 18:43:27;;;;;;;6.28;1.92;;;;;;;14.07;100.00;101464.91;10467095;28;20033;-77
2023/08/07 18:48:28;;;;;;;4.28;1.33;;;;;;;13.85;100.00;101464.81;10483223;28;20127;-77
2023/08/07 18:53:29;;;;;;;4.22;2.38;;;;;;;13.59;100.00;101465.47;10485323;28;20040;-78
2023/08/07 18:58:29;;;;;;;4.78;2.55;;;;;;;13.41;100.00;101468.13;10492197;28;20539;-78
2023/08/07 19:03:30;;;;;;;3.30;1.65;;;;;;;13.29;100.00;101472.81;10493846;28;20050;-78
2023/08/07 19:08:32;;;;;;;5.10;1.55;;;;;;;13.12;100.00;101479.94;10441471;28;20048;-77
2023/08/07 19:13:32;;;;;;;6.07;1.98;;;;;;;13.02;100.00;101486.47;10483103;28;20039;-78
2023/08/07 19:18:33;;;;;;;4.28;1.50;;;;;;;13.07;100.00;101490.22;10481544;28;20063;-78
2023/08/07 19:23:33;;;;;;;5.50;2.33;;;;;;;13.08;100.00;101489.38;10484221;28;20043;-78
2023/08/07 19:28:34;;;;;;;4.93;1.33;;;;;;;13.05;100.00;101474.38;10499700;28;20173;-78
2023/08/07 19:33:34;;;;;;;3.15;1.50;;;;;;;12.95;100.00;101480.03;10481167;28;20381;-78
2023/08/07 19:38:35;;;;;;;9.85;1.77;;;;;;;12.78;100.00;101487.09;10481107;28;20044;-78
2023/08/07 19:43:35;;;;;;;6.55;2.08;;;;;;;12.58;100.00;101500.13;10453162;28;20128;-78
2023/08/07 19:48:36;;;;;;;8.85;2.13;;;;;;;12.47;100.00;101507.50;10440273;28;20040;-79
2023/08/07 19:53:36;;;;;;;6.78;1.90;;;;;;;12.28;100.00;101534.53;10440621;28;20047;-78
2023/08/07 19:58:37;;;;;;;7.68;4.22;;;;;;;12.07;100.00;101543.91;10466251;28;20039;-78
2023/08/07 20:03:38;;;;;;;6.82;3.35;;;;;;;11.89;100.00;101528.97;10459166;28;20119;-78
2023/08/07 20:08:38;;;;;;;5.47;2.42;;;;;;;11.69;100.00;101527.91;10478440;28;20492;-78
2023/08/07 20:13:39;;;;;;;6.13;2.08;;;;;;;11.50;100.00;101521.69;10474890;28;20445;-78
2023/08/07 20:18:40;;;;;;;5.53;2.05;;;;;;;11.38;100.00;101521.00;10515836;28;20048;-78
2023/08/07 20:23:40;;;;;;;5.80;2.13;;;;;;;11.29;100.00;101517.06;10477934;28;20044;-78
2023/08/07 20:28:41;;;;;;;6.22;2.40;;;;;;;11.10;100.00;101515.13;10456832;28;20150;-77
2023/08/07 20:33:41;;;;;;;7.43;2.83;;;;;;;10.96;100.00;101495.13;10414260;28;20137;-78
2023/08/07 20:38:42;;;;;;;5.10;2.30;;;;;;;10.76;100.00;101501.88;10438680;28;20465;-79
2023/08/07 20:43:43;;;;;;;10.02;2.45;;;;;;;10.61;100.00;101504.50;10439432;28;20150;-78
2023/08/07 20:48:45;;;;;;;7.63;3.75;;;;;;;10.57;100.00;101506.94;10438278;28;20159;-80
2023/08/07 20:53:45;;;;;;;6.33;3.10;;;;;;;10.61;100.00;101502.78;10442773;28;20531;-79
2023/08/07 20:58:46;;;;;;;13.45;3.83;;;;;;;10.55;100.00;101508.56;10428509;28;20325;-80
2023/08/07 21:03:46;;;;;;;9.45;3.53;;;;;;;10.37;100.00;101495.28;10448010;28;20037;-78
2023/08/07 21:08:47;;;;;;;10.18;4.38;;;;;;;10.36;100.00;101490.88;10437939;28;20041;-78
2023/08/07 21:13:47;;;;;;;6.47;3.10;;;;;;;10.32;100.00;101480.13;10445169;28;20043;-79
2023/08/07 21:18:48;;;;;;;16.40;6.85;;;;;;;10.23;100.00;101473.53;10429480;28;20055;-78
2023/08/07 21:23:48;;;;;;;23.05;4.47;;;;;;;10.13;100.00;101468.56;10446919;28;20769;-79
2023/08/07 21:28:49;;;;;;;7.65;3.40;;;;;;;10.04;100.00;101461.09;10445622;28;20055;-78
2023/08/07 21:33:49;;;;;;;5.68;3.03;;;;;;;10.08;100.00;101455.25;10444713;28;21063;-76
2023/08/07 21:38:52;;;;;;;6.65;4.55;;;;;;;10.07;100.00;101455.13;10440321;28;20632;-75
2023/08/07 21:43:52;;;;;;;;;;;;;;;10.04;100.00;101447.09;10440743;28;20080;-76
2023/08/07 21:48:53;;;;;;;7.07;4.30;;;;;;;10.11;100.00;101430.97;10443205;28;20056;-76
2023/08/07 21:53:53;;;;;;;8.02;3.58;;;;;;;10.07;100.00;101439.44;10443716;28;20128;-76
2023/08/07 21:58:54;;;;;;;9.65;4.20;;;;;;;10.03;100.00;101425.28;10446282;28;20457;-76
2023/08/07 22:03:54;;;;;;;7.85;4.35;;;;;;;9.97;100.00;101417.97;10437015;28;20101;-75
2023/08/07 22:08:55;;;;;;;11.35;4.72;;;;;;;9.99;100.00;101408.50;10473192;28;20064;-76
2023/08/07 22:13:56;;;;;;;7.72;3.20;;;;;;;9.94;100.00;101411.69;10485133;28;20093;-76
2023/08/07 22:18:56;;;;;;;12.07;4.03;;;;;;;9.88;100.00;101406.97;10487936;28;20048;-75
2023/08/07 22:23:57;;;;;;;6.22;3.88;;;;;;;9.87;100.00;101402.56;10486693;28;20064;-76
2023/08/07 22:28:57;;;;;;;7.50;3.63;;;;;;;9.87;100.00;101402.56;10485259;28;20032;-75
2023/08/07 22:33:58;;;;;;;8.60;4.43;;;;;;;9.92;100.00;101401.13;10482606;28;20394;-75
2023/08/07 22:38:58;;;;;;;6.60;4.25;;;;;;;9.96;100.00;101408.31;10487258;28;20051;-75
2023/08/07 22:44:00;;;;;;;7.70;4.22;;;;;;;9.93;100.00;101400.31;10485940;28;20545;-76
2023/08/07 22:49:00;;;;;;;11.80;4.78;;;;;;;9.93;100.00;101400.31;10469206;28;20118;-76